createdAt,value
2017-12-23T00:00:43.871Z,20.52
2017-12-23T00:01:52.557Z,20.57
2017-12-23T00:03:01.601Z,20.58
2017-12-23T00:04:10.824Z,20.61
2017-12-23T00:05:20.047Z,20.54
2017-12-23T00:06:29.662Z,20.55
2017-12-23T00:07:38.877Z,20.58
2017-12-23T00:08:48.338Z,20.5
2017-12-23T00:09:57.296Z,20.61
2017-12-23T00:11:06.495Z,20.62
2017-12-23T00:12:15.433Z,20.59
2017-12-23T00:13:24.662Z,20.62
2017-12-23T00:14:33.999Z,20.61
2017-12-23T00:15:43.219Z,20.67
2017-12-23T00:16:52.495Z,20.62
2017-12-23T00:18:02.035Z,20.61
2017-12-23T00:19:10.717Z,20.61
2017-12-23T00:20:20.011Z,20.58
2017-12-23T00:21:28.710Z,20.59
2017-12-23T00:22:37.968Z,20.66
2017-12-23T00:23:47.456Z,20.58
2017-12-23T00:24:56.411Z,20.61
2017-12-23T00:26:06.141Z,20.59
2017-12-23T00:27:15.872Z,20.64
2017-12-23T00:28:24.550Z,20.62
2017-12-23T00:29:34.300Z,20.57
2017-12-23T00:30:43.516Z,20.64
2017-12-23T00:31:52.217Z,20.64
2017-12-23T00:33:01.714Z,20.62
2017-12-23T00:34:10.681Z,20.69
2017-12-23T00:35:19.367Z,20.52
2017-12-23T00:36:28.830Z,20.62
2017-12-23T00:37:37.521Z,20.61
2017-12-23T00:38:46.740Z,20.59
2017-12-23T00:39:55.681Z,20.57
2017-12-23T00:41:04.701Z,20.58
2017-12-23T00:42:13.906Z,20.52
2017-12-23T00:43:23.113Z,20.55
2017-12-23T00:44:32.071Z,20.55
2017-12-23T00:45:40.750Z,20.59
2017-12-23T00:46:49.976Z,20.55
2017-12-23T00:47:58.933Z,20.52
2017-12-23T00:49:07.978Z,20.52
2017-12-23T00:50:16.676Z,20.57
2017-12-23T00:51:25.895Z,20.59
2017-12-23T00:52:34.568Z,20.66
2017-12-23T00:53:43.780Z,20.54
2017-12-23T00:54:52.475Z,20.64
2017-12-23T00:56:01.421Z,20.62
2017-12-23T00:57:10.641Z,20.55
2017-12-23T00:58:19.322Z,20.55
2017-12-23T00:59:28.794Z,20.59
2017-12-23T01:00:37.485Z,20.52
2017-12-23T01:01:46.427Z,20.52
2017-12-23T01:02:55.178Z,20.61
2017-12-23T01:04:04.386Z,20.55
2017-12-23T01:05:13.356Z,20.58
2017-12-23T01:06:22.306Z,20.41
2017-12-23T01:07:31.500Z,20.55
2017-12-23T01:08:41.226Z,20.59
2017-12-23T01:09:49.907Z,20.51
2017-12-23T01:10:59.640Z,20.51
2017-12-23T01:12:08.843Z,20.52
2017-12-23T01:13:18.053Z,20.61
2017-12-23T01:14:26.994Z,20.59
2017-12-23T01:15:36.227Z,20.52
2017-12-23T01:16:45.431Z,20.61
2017-12-23T01:17:54.369Z,20.43
2017-12-23T01:19:03.058Z,20.55
2017-12-23T01:20:12.534Z,20.55
2017-12-23T01:21:21.740Z,20.55
2017-12-23T01:22:30.952Z,20.59
2017-12-23T01:23:40.164Z,20.5
2017-12-23T01:24:48.837Z,20.58
2017-12-23T01:25:57.772Z,20.58
2017-12-23T01:27:06.728Z,20.57
2017-12-23T01:28:15.402Z,20.43
2017-12-23T01:29:24.633Z,20.43
2017-12-23T01:30:33.307Z,20.47
2017-12-23T01:31:42.537Z,20.43
2017-12-23T01:32:51.486Z,20.42
2017-12-23T01:34:00.688Z,20.5
2017-12-23T01:35:09.622Z,20.58
2017-12-23T01:36:18.306Z,20.39
2017-12-23T01:37:27.519Z,20.52
2017-12-23T01:38:36.730Z,20.43
2017-12-23T01:39:46.260Z,20.48
2017-12-23T01:40:55.217Z,20.43
2017-12-23T01:42:04.431Z,20.57
2017-12-23T01:43:13.117Z,20.52
2017-12-23T01:44:21.804Z,20.51
2017-12-23T01:45:30.996Z,20.51
2017-12-23T01:46:40.052Z,20.55
2017-12-23T01:47:48.986Z,20.57
2017-12-23T01:48:57.928Z,20.61
2017-12-23T01:50:06.875Z,20.54
2017-12-23T01:51:15.833Z,20.43
2017-12-23T01:52:24.784Z,20.47
2017-12-23T01:53:33.747Z,20.47
2017-12-23T01:54:42.679Z,20.52
2017-12-23T01:55:51.626Z,20.54
2017-12-23T01:57:00.567Z,20.54
2017-12-23T01:58:09.527Z,20.47
2017-12-23T01:59:18.731Z,20.54
2017-12-23T02:00:27.426Z,20.52
2017-12-23T02:01:36.384Z,20.47
2017-12-23T02:02:45.615Z,20.51
2017-12-23T02:03:54.566Z,20.42
2017-12-23T02:05:03.774Z,20.58
2017-12-23T02:06:12.984Z,20.43
2017-12-23T02:07:21.926Z,20.55
2017-12-23T02:08:31.647Z,20.51
2017-12-23T02:09:40.598Z,20.51
2017-12-23T02:10:49.580Z,20.38
2017-12-23T02:11:58.798Z,20.51
2017-12-23T02:13:08.003Z,20.55
2017-12-23T02:14:17.212Z,20.38
2017-12-23T02:15:26.150Z,20.58
2017-12-23T02:16:34.840Z,20.51
2017-12-23T02:17:44.563Z,20.42
2017-12-23T02:18:53.502Z,20.47
2017-12-23T02:20:02.448Z,20.55
2017-12-23T02:21:11.908Z,20.48
2017-12-23T02:22:21.372Z,20.57
2017-12-23T02:23:30.324Z,20.51
2017-12-23T02:24:39.263Z,20.47
2017-12-23T02:25:48.236Z,20.58
2017-12-23T02:26:57.703Z,20.5
2017-12-23T02:28:06.380Z,20.58
2017-12-23T02:29:15.844Z,20.5
2017-12-23T02:30:24.801Z,20.38
2017-12-23T02:31:34.033Z,20.42
2017-12-23T02:32:43.511Z,20.48
2017-12-23T02:33:52.727Z,20.51
2017-12-23T02:35:01.426Z,20.51
2017-12-23T02:36:10.370Z,20.52
2017-12-23T02:37:19.597Z,20.48
2017-12-23T02:38:28.799Z,20.54
2017-12-23T02:39:37.753Z,20.48
2017-12-23T02:40:47.236Z,20.55
2017-12-23T02:41:56.205Z,20.55
2017-12-23T02:43:05.680Z,20.51
2017-12-23T02:44:14.896Z,20.51
2017-12-23T02:45:24.106Z,20.54
2017-12-23T02:46:33.579Z,20.51
2017-12-23T02:47:42.783Z,20.5
2017-12-23T02:48:52.009Z,20.48
2017-12-23T02:50:01.221Z,20.51
2017-12-23T02:51:10.175Z,20.51
2017-12-23T02:52:19.931Z,20.54
2017-12-23T02:53:29.142Z,20.43
2017-12-23T02:54:38.094Z,20.39
2017-12-23T02:55:47.315Z,20.54
2017-12-23T02:56:56.272Z,20.51
2017-12-23T02:58:05.482Z,20.55
2017-12-23T02:59:14.431Z,20.57
2017-12-23T03:00:23.374Z,20.43
2017-12-23T03:01:32.072Z,20.51
2017-12-23T03:02:41.016Z,20.39
2017-12-23T03:03:50.288Z,20.5
2017-12-23T03:04:59.237Z,20.43
2017-12-23T03:06:08.717Z,20.5
2017-12-23T03:07:17.669Z,20.55
2017-12-23T03:08:26.873Z,20.52
2017-12-23T03:09:35.883Z,20.52
2017-12-23T03:10:45.083Z,20.54
2017-12-23T03:11:54.286Z,20.55
2017-12-23T03:13:03.499Z,20.51
2017-12-23T03:14:12.722Z,20.55
2017-12-23T03:15:21.667Z,20.54
2017-12-23T03:16:30.345Z,20.41
2017-12-23T03:17:39.019Z,20.47
2017-12-23T03:18:48.482Z,20.41
2017-12-23T03:19:57.468Z,20.39
2017-12-23T03:21:06.120Z,20.57
2017-12-23T03:22:15.075Z,20.39
2017-12-23T03:23:24.275Z,20.47
2017-12-23T03:24:33.222Z,20.43
2017-12-23T03:25:42.177Z,20.42
2017-12-23T03:26:51.145Z,20.48
2017-12-23T03:28:00.624Z,20.47
2017-12-23T03:29:09.591Z,20.42
2017-12-23T03:30:18.816Z,20.42
2017-12-23T03:31:28.039Z,20.43
2017-12-23T03:32:37.252Z,20.51
2017-12-23T03:33:46.197Z,20.41
2017-12-23T03:34:55.417Z,20.43
2017-12-23T03:36:05.263Z,20.52
2017-12-23T03:37:14.489Z,20.51
2017-12-23T03:38:23.171Z,20.39
2017-12-23T03:39:31.857Z,20.54
2017-12-23T03:40:41.335Z,20.5
2017-12-23T03:41:50.536Z,20.39
2017-12-23T03:42:59.488Z,20.43
2017-12-23T03:44:08.719Z,20.47
2017-12-23T03:45:18.198Z,20.57
2017-12-23T03:46:27.422Z,20.42
2017-12-23T03:47:36.105Z,20.52
2017-12-23T03:48:45.843Z,20.41
2017-12-23T03:49:55.323Z,20.55
2017-12-23T03:51:04.270Z,20.41
2017-12-23T03:52:13.483Z,20.54
2017-12-23T03:53:22.425Z,20.48
2017-12-23T03:54:31.887Z,20.51
2017-12-23T03:55:41.368Z,20.52
2017-12-23T03:56:50.314Z,20.5
2017-12-23T03:57:59.315Z,20.52
2017-12-23T03:59:08.808Z,20.51
2017-12-23T04:00:18.035Z,20.42
2017-12-23T04:01:27.231Z,20.47
2017-12-23T04:02:36.498Z,20.54
2017-12-23T04:03:45.447Z,20.52
2017-12-23T04:04:54.899Z,20.48
2017-12-23T04:06:03.596Z,20.54
2017-12-23T04:07:12.276Z,20.48
2017-12-23T04:08:20.957Z,20.43
2017-12-23T04:09:29.908Z,20.43
2017-12-23T04:10:38.586Z,20.39
2017-12-23T04:11:47.533Z,20.48
2017-12-23T04:12:56.219Z,20.43
2017-12-23T04:14:05.425Z,20.51
2017-12-23T04:15:14.637Z,20.51
2017-12-23T04:16:23.326Z,20.47
2017-12-23T04:17:32.261Z,20.42
2017-12-23T04:18:41.474Z,20.41
2017-12-23T04:19:50.696Z,20.52
2017-12-23T04:20:59.636Z,20.43
2017-12-23T04:22:08.600Z,20.5
2017-12-23T04:23:17.542Z,20.41
2017-12-23T04:24:26.216Z,20.48
2017-12-23T04:25:35.675Z,20.5
2017-12-23T04:26:45.138Z,20.43
2017-12-23T04:27:54.358Z,20.39
2017-12-23T04:29:03.566Z,20.42
2017-12-23T04:30:12.777Z,20.51
2017-12-23T04:31:21.726Z,20.48
2017-12-23T04:32:30.926Z,20.51
2017-12-23T04:33:40.387Z,20.38
2017-12-23T04:34:49.333Z,20.48
2017-12-23T04:35:58.532Z,20.48
2017-12-23T04:37:07.465Z,20.41
2017-12-23T04:38:16.672Z,20.47
2017-12-23T04:39:26.255Z,20.42
2017-12-23T04:40:34.926Z,20.48
2017-12-23T04:41:44.129Z,20.41
2017-12-23T04:42:53.578Z,20.5
2017-12-23T04:44:02.836Z,20.43
2017-12-23T04:45:11.775Z,20.41
2017-12-23T04:46:21.248Z,20.39
2017-12-23T04:47:30.186Z,20.41
2017-12-23T04:48:39.150Z,20.41
2017-12-23T04:49:48.613Z,20.39
2017-12-23T04:50:57.812Z,20.47
2017-12-23T04:52:06.756Z,20.48
2017-12-23T04:53:16.229Z,20.38
2017-12-23T04:54:25.430Z,20.41
2017-12-23T04:55:34.633Z,20.38
2017-12-23T04:56:43.657Z,20.42
2017-12-23T04:57:53.407Z,20.47
2017-12-23T04:59:02.366Z,20.42
2017-12-23T05:00:11.059Z,20.42
2017-12-23T05:01:20.003Z,20.38
2017-12-23T05:02:29.496Z,20.43
2017-12-23T05:03:38.989Z,20.36
2017-12-23T05:04:47.989Z,20.5
2017-12-23T05:05:56.693Z,20.42
2017-12-23T05:07:05.651Z,20.42
2017-12-23T05:08:14.855Z,20.43
2017-12-23T05:09:23.895Z,20.39
2017-12-23T05:10:33.369Z,20.41
2017-12-23T05:11:42.352Z,20.38
2017-12-23T05:12:51.815Z,20.47
2017-12-23T05:14:01.118Z,20.41
2017-12-23T05:15:10.071Z,20.41
2017-12-23T05:16:19.289Z,20.39
2017-12-23T05:17:28.489Z,20.41
2017-12-23T05:18:37.173Z,20.41
2017-12-23T05:19:46.136Z,20.43
2017-12-23T05:20:54.831Z,20.36
2017-12-23T05:22:04.045Z,20.41
2017-12-23T05:23:13.519Z,20.47
2017-12-23T05:24:22.996Z,20.41
2017-12-23T05:25:31.935Z,20.39
2017-12-23T05:26:40.898Z,20.42
2017-12-23T05:27:50.368Z,20.43
2017-12-23T05:28:59.061Z,20.38
2017-12-23T05:30:08.072Z,20.42
2017-12-23T05:31:17.400Z,20.47
2017-12-23T05:32:26.343Z,20.39
2017-12-23T05:33:35.012Z,20.39
2017-12-23T05:34:43.694Z,20.33
2017-12-23T05:35:52.373Z,20.47
2017-12-23T05:37:01.059Z,20.39
2017-12-23T05:38:10.004Z,20.36
2017-12-23T05:39:19.042Z,20.41
2017-12-23T05:40:28.249Z,20.36
2017-12-23T05:41:37.194Z,20.38
2017-12-23T05:42:46.655Z,20.43
2017-12-23T05:43:55.618Z,20.41
2017-12-23T05:45:04.291Z,20.41
2017-12-23T05:46:13.486Z,20.38
2017-12-23T05:47:22.684Z,20.39
2017-12-23T05:48:31.624Z,20.41
2017-12-23T05:49:40.557Z,20.36
2017-12-23T05:50:49.512Z,20.36
2017-12-23T05:51:58.207Z,20.39
2017-12-23T05:53:06.894Z,20.41
2017-12-23T05:54:15.904Z,20.35
2017-12-23T05:55:24.862Z,20.38
2017-12-23T05:56:33.795Z,20.38
2017-12-23T05:57:42.501Z,20.35
2017-12-23T05:58:51.713Z,20.38
2017-12-23T06:00:00.680Z,20.35
2017-12-23T06:01:09.914Z,20.39
2017-12-23T06:02:18.881Z,20.42
2017-12-23T06:03:27.839Z,20.35
2017-12-23T06:04:36.792Z,20.41
2017-12-23T06:05:46.062Z,20.42
2017-12-23T06:06:55.273Z,20.39
2017-12-23T06:08:04.759Z,20.38
2017-12-23T06:09:14.226Z,20.39
2017-12-23T06:10:23.682Z,20.41
2017-12-23T06:11:32.664Z,20.42
2017-12-23T06:12:41.625Z,20.43
2017-12-23T06:13:51.090Z,20.38
2017-12-23T06:15:00.305Z,20.41
2017-12-23T06:16:09.335Z,20.39
2017-12-23T06:17:18.018Z,20.43
2017-12-23T06:18:26.977Z,20.41
2017-12-23T06:19:35.668Z,20.39
2017-12-23T06:20:45.136Z,20.35
2017-12-23T06:21:54.086Z,20.39
2017-12-23T06:23:03.332Z,20.43
2017-12-23T06:24:12.023Z,20.39
2017-12-23T06:25:20.991Z,20.42
2017-12-23T06:26:30.197Z,20.41
2017-12-23T06:27:39.432Z,20.35
2017-12-23T06:28:48.372Z,20.39
2017-12-23T06:29:57.590Z,20.42
2017-12-23T06:31:06.339Z,20.47
2017-12-23T06:32:15.531Z,20.36
2017-12-23T06:33:24.755Z,20.41
2017-12-23T06:34:33.710Z,20.41
2017-12-23T06:35:43.174Z,20.41
2017-12-23T06:36:52.380Z,20.41
2017-12-23T06:38:01.322Z,20.42
2017-12-23T06:39:10.530Z,20.42
2017-12-23T06:40:19.826Z,20.39
2017-12-23T06:41:28.777Z,20.43
2017-12-23T06:42:37.975Z,20.41
2017-12-23T06:43:47.707Z,20.39
2017-12-23T06:44:56.949Z,20.41
2017-12-23T06:46:06.164Z,20.43
2017-12-23T06:47:15.375Z,20.42
2017-12-23T06:48:24.848Z,20.39
2017-12-23T06:49:33.858Z,20.39
2017-12-23T06:50:42.829Z,20.41
2017-12-23T06:51:52.290Z,20.36
2017-12-23T06:53:01.233Z,20.38
2017-12-23T06:54:10.184Z,20.41
2017-12-23T06:55:19.148Z,20.39
2017-12-23T06:56:27.847Z,20.42
2017-12-23T06:57:37.308Z,20.41
2017-12-23T06:58:46.269Z,20.38
2017-12-23T06:59:55.512Z,20.42
2017-12-23T07:01:04.481Z,20.47
2017-12-23T07:02:14.216Z,20.43
2017-12-23T07:03:23.159Z,20.38
2017-12-23T07:04:32.620Z,20.43
2017-12-23T07:05:41.899Z,20.39
2017-12-23T07:06:51.098Z,20.43
2017-12-23T07:08:00.045Z,20.38
2017-12-23T07:09:09.000Z,20.38
2017-12-23T07:10:18.197Z,20.36
2017-12-23T07:11:26.880Z,20.41
2017-12-23T07:12:36.086Z,20.43
2017-12-23T07:13:45.613Z,20.42
2017-12-23T07:14:54.827Z,20.41
2017-12-23T07:16:04.309Z,20.36
2017-12-23T07:17:13.787Z,20.38
2017-12-23T07:18:22.729Z,20.35
2017-12-23T07:19:31.418Z,20.38
2017-12-23T07:20:40.412Z,20.43
2017-12-23T07:21:49.887Z,20.42
2017-12-23T07:22:58.834Z,20.47
2017-12-23T07:24:07.772Z,20.38
2017-12-23T07:25:16.459Z,20.38
2017-12-23T07:26:25.137Z,20.35
2017-12-23T07:27:34.360Z,20.47
2017-12-23T07:28:43.559Z,20.42
2017-12-23T07:29:52.242Z,20.41
2017-12-23T07:31:01.433Z,20.39
2017-12-23T07:32:10.638Z,20.41
2017-12-23T07:33:20.101Z,20.38
2017-12-23T07:34:28.779Z,20.39
2017-12-23T07:35:38.503Z,20.38
2017-12-23T07:36:47.707Z,20.43
2017-12-23T07:37:56.906Z,20.36
2017-12-23T07:39:06.133Z,20.42
2017-12-23T07:40:14.820Z,20.41
2017-12-23T07:41:24.021Z,20.47
2017-12-23T07:42:33.229Z,20.35
2017-12-23T07:43:42.537Z,20.42
2017-12-23T07:44:51.492Z,20.43
2017-12-23T07:46:01.413Z,20.32
2017-12-23T07:47:11.142Z,20.38
2017-12-23T07:48:20.096Z,20.42
2017-12-23T07:49:29.139Z,20.38
2017-12-23T07:50:38.611Z,20.41
2017-12-23T07:51:48.074Z,20.38
2017-12-23T07:52:57.281Z,20.42
2017-12-23T07:54:06.751Z,20.41
2017-12-23T07:55:15.961Z,20.41
2017-12-23T07:56:24.641Z,20.42
2017-12-23T07:57:33.590Z,20.42
2017-12-23T07:58:42.796Z,20.38
2017-12-23T07:59:51.477Z,20.42
2017-12-23T08:01:00.951Z,20.38
2017-12-23T08:02:10.161Z,20.38
2017-12-23T08:03:19.380Z,20.42
2017-12-23T08:04:28.604Z,20.41
2017-12-23T08:05:37.541Z,20.47
2017-12-23T08:06:46.784Z,20.47
2017-12-23T08:07:55.983Z,20.38
2017-12-23T08:09:04.998Z,20.38
2017-12-23T08:10:13.952Z,20.39
2017-12-23T08:11:22.635Z,20.41
2017-12-23T08:12:31.859Z,20.39
2017-12-23T08:13:40.802Z,20.41
2017-12-23T08:14:50.291Z,20.39
2017-12-23T08:15:59.515Z,20.42
2017-12-23T08:17:08.988Z,20.41
2017-12-23T08:18:18.184Z,20.41
2017-12-23T08:19:27.454Z,20.41
2017-12-23T08:20:36.662Z,20.41
2017-12-23T08:21:45.876Z,20.41
2017-12-23T08:22:54.828Z,20.51
2017-12-23T08:24:04.578Z,20.52
2017-12-23T08:25:13.530Z,20.42
2017-12-23T08:26:22.731Z,20.41
2017-12-23T08:27:31.958Z,20.52
2017-12-23T08:28:41.425Z,20.5
2017-12-23T08:29:50.098Z,20.41
2017-12-23T08:30:59.292Z,20.39
2017-12-23T08:32:08.235Z,20.42
2017-12-23T08:33:17.457Z,20.48
2017-12-23T08:34:26.662Z,20.52
2017-12-23T08:35:36.140Z,20.42
2017-12-23T08:36:45.107Z,20.43
2017-12-23T08:37:54.138Z,20.43
2017-12-23T08:39:03.348Z,20.5
2017-12-23T08:40:12.021Z,20.42
2017-12-23T08:41:21.078Z,20.48
2017-12-23T08:42:30.032Z,20.42
2017-12-23T08:43:38.992Z,20.42
2017-12-23T08:44:47.706Z,20.48
2017-12-23T08:45:56.938Z,20.54
2017-12-23T08:47:06.432Z,20.47
2017-12-23T08:48:15.385Z,20.42
2017-12-23T08:49:24.604Z,20.43
2017-12-23T08:50:33.550Z,20.51
2017-12-23T08:51:42.769Z,20.51
2017-12-23T08:52:51.989Z,20.48
2017-12-23T08:54:01.028Z,20.48
2017-12-23T08:55:10.281Z,20.42
2017-12-23T08:56:19.227Z,20.5
2017-12-23T08:57:28.172Z,20.55
2017-12-23T08:58:37.383Z,20.55
2017-12-23T08:59:46.064Z,20.54
2017-12-23T09:00:55.285Z,20.5
2017-12-23T09:02:04.250Z,20.5
2017-12-23T09:03:13.714Z,20.43
2017-12-23T09:04:23.178Z,20.5
2017-12-23T09:05:32.121Z,20.57
2017-12-23T09:06:41.583Z,20.54
2017-12-23T09:07:51.318Z,20.41
2017-12-23T09:09:00.524Z,20.51
2017-12-23T09:10:09.732Z,20.5
2017-12-23T09:11:19.213Z,20.55
2017-12-23T09:12:27.902Z,20.43
2017-12-23T09:13:36.888Z,20.52
2017-12-23T09:14:45.836Z,20.54
2017-12-23T09:15:55.058Z,20.38
2017-12-23T09:17:04.546Z,20.36
2017-12-23T09:18:13.750Z,20.42
2017-12-23T09:19:22.959Z,20.42
2017-12-23T09:20:32.708Z,20.48
2017-12-23T09:21:41.932Z,20.42
2017-12-23T09:22:51.431Z,20.48
2017-12-23T09:24:01.446Z,20.52
2017-12-23T09:25:10.927Z,20.52
2017-12-23T09:26:20.403Z,20.42
2017-12-23T09:27:29.350Z,20.54
2017-12-23T09:28:38.316Z,20.47
2017-12-23T09:29:47.796Z,20.43
2017-12-23T09:30:56.490Z,20.48
2017-12-23T09:32:05.517Z,20.5
2017-12-23T09:33:14.751Z,20.47
2017-12-23T09:34:23.876Z,20.57
2017-12-23T09:35:32.558Z,20.5
2017-12-23T09:36:41.515Z,20.43
2017-12-23T09:37:50.712Z,20.51
2017-12-23T09:38:59.416Z,20.43
2017-12-23T09:40:08.618Z,20.51
2017-12-23T09:41:17.307Z,20.39
2017-12-23T09:42:26.555Z,20.41
2017-12-23T09:43:35.494Z,20.48
2017-12-23T09:44:44.967Z,20.43
2017-12-23T09:45:53.653Z,20.43
2017-12-23T09:47:02.603Z,20.57
2017-12-23T09:48:12.069Z,20.52
2017-12-23T09:49:21.290Z,20.42
2017-12-23T09:50:31.285Z,20.57
2017-12-23T09:51:40.481Z,20.58
2017-12-23T09:52:49.463Z,20.57
2017-12-23T09:53:58.680Z,20.54
2017-12-23T09:55:08.414Z,20.55
2017-12-23T09:56:17.367Z,20.57
2017-12-23T09:57:26.567Z,20.58
2017-12-23T09:58:35.507Z,20.55
2017-12-23T09:59:44.995Z,20.58
2017-12-23T10:00:53.687Z,20.59
2017-12-23T10:02:02.654Z,20.5
2017-12-23T10:03:11.340Z,20.55
2017-12-23T10:04:20.281Z,20.59
2017-12-23T10:05:28.960Z,20.5
2017-12-23T10:06:38.430Z,20.59
2017-12-23T10:07:47.116Z,20.57
2017-12-23T10:08:56.323Z,20.55
2017-12-23T10:10:05.279Z,20.55
2017-12-23T10:11:14.281Z,20.61
2017-12-23T10:12:23.750Z,20.59
2017-12-23T10:13:33.508Z,20.59
2017-12-23T10:14:42.971Z,20.62
2017-12-23T10:15:52.187Z,20.61
2017-12-23T10:17:01.399Z,20.55
2017-12-23T10:18:10.350Z,20.55
2017-12-23T10:19:19.304Z,20.52
2017-12-23T10:20:28.246Z,20.57
2017-12-23T10:21:37.455Z,20.57
2017-12-23T10:22:46.943Z,20.59
2017-12-23T10:23:56.151Z,20.59
2017-12-23T10:25:05.207Z,20.59
2017-12-23T10:26:14.681Z,20.57
2017-12-23T10:27:23.701Z,20.59
2017-12-23T10:28:33.229Z,20.58
2017-12-23T10:29:42.963Z,20.57
2017-12-23T10:30:52.445Z,20.64
2017-12-23T10:32:01.408Z,20.52
2017-12-23T10:33:10.349Z,20.64
2017-12-23T10:34:19.836Z,20.61
2017-12-23T10:35:29.040Z,20.59
2017-12-23T10:36:38.020Z,20.54
2017-12-23T10:37:47.226Z,20.57
2017-12-23T10:38:56.180Z,20.55
2017-12-23T10:40:05.402Z,20.57
2017-12-23T10:41:14.610Z,20.55
2017-12-23T10:42:23.834Z,20.57
2017-12-23T10:43:32.514Z,20.57
2017-12-23T10:44:41.723Z,20.59
2017-12-23T10:45:50.673Z,20.51
2017-12-23T10:46:59.905Z,20.55
2017-12-23T10:48:09.116Z,20.55
2017-12-23T10:49:18.594Z,20.55
2017-12-23T10:50:28.319Z,20.55
2017-12-23T10:51:37.273Z,20.54
2017-12-23T10:52:46.471Z,20.51
2017-12-23T10:53:55.519Z,20.58
2017-12-23T10:55:04.746Z,20.59
2017-12-23T10:56:13.716Z,20.54
2017-12-23T10:57:22.916Z,20.57
2017-12-23T10:58:32.412Z,20.57
2017-12-23T10:59:41.091Z,20.58
2017-12-23T11:00:50.305Z,20.55
2017-12-23T11:01:58.983Z,20.54
2017-12-23T11:03:08.465Z,20.55
2017-12-23T11:04:17.433Z,20.59
2017-12-23T11:05:27.154Z,20.58
2017-12-23T11:06:36.108Z,20.54
2017-12-23T11:07:44.788Z,20.57
2017-12-23T11:08:54.546Z,20.57
2017-12-23T11:10:03.499Z,20.57
2017-12-23T11:11:13.229Z,20.61
2017-12-23T11:12:21.918Z,20.52
2017-12-23T11:13:31.381Z,20.61
2017-12-23T11:14:40.057Z,20.55
2017-12-23T11:15:49.027Z,20.61
2017-12-23T11:16:58.291Z,20.62
2017-12-23T11:18:06.979Z,20.52
2017-12-23T11:19:15.666Z,20.52
2017-12-23T11:20:24.676Z,20.55
2017-12-23T11:21:33.619Z,20.55
2017-12-23T11:22:42.634Z,20.58
2017-12-23T11:23:51.873Z,20.57
2017-12-23T11:25:00.564Z,20.57
2017-12-23T11:26:10.028Z,20.57
2017-12-23T11:27:19.761Z,20.55
2017-12-23T11:28:29.608Z,20.59
2017-12-23T11:29:38.562Z,20.58
2017-12-23T11:30:47.498Z,20.59
2017-12-23T11:31:56.700Z,20.61
2017-12-23T11:33:05.899Z,20.59
2017-12-23T11:34:14.856Z,20.62
2017-12-23T11:35:24.058Z,20.62
2017-12-23T11:36:33.323Z,20.57
2017-12-23T11:37:42.516Z,20.62
2017-12-23T11:38:51.712Z,20.69
2017-12-23T11:40:00.919Z,20.62
2017-12-23T11:41:09.866Z,20.59
2017-12-23T11:42:19.327Z,20.62
2017-12-23T11:43:28.521Z,20.69
2017-12-23T11:44:37.723Z,20.59
2017-12-23T11:45:46.939Z,20.58
2017-12-23T11:46:55.870Z,20.62
2017-12-23T11:48:05.082Z,20.59
2017-12-23T11:49:14.551Z,20.69
2017-12-23T11:50:24.014Z,20.64
2017-12-23T11:51:32.720Z,20.66
2017-12-23T11:52:41.669Z,20.66
2017-12-23T11:53:51.133Z,20.62
2017-12-23T11:54:59.823Z,20.64
2017-12-23T11:56:08.497Z,20.66
2017-12-23T11:57:17.703Z,20.67
2017-12-23T11:58:26.998Z,20.64
2017-12-23T11:59:36.474Z,20.69
2017-12-23T12:00:45.448Z,20.62
2017-12-23T12:01:54.396Z,20.66
2017-12-23T12:03:03.183Z,20.62
2017-12-23T12:04:12.150Z,20.64
2017-12-23T12:05:20.832Z,20.69
2017-12-23T12:06:29.528Z,20.66
2017-12-23T12:07:38.206Z,20.69
2017-12-23T12:08:47.149Z,20.62
2017-12-23T12:09:56.092Z,20.67
2017-12-23T12:11:05.564Z,20.69
2017-12-23T12:12:14.813Z,20.66
2017-12-23T12:13:23.756Z,20.61
2017-12-23T12:14:32.955Z,20.64
2017-12-23T12:15:42.172Z,20.55
2017-12-23T12:16:50.850Z,20.62
2017-12-23T12:17:59.813Z,20.59
2017-12-23T12:19:09.003Z,20.55
2017-12-23T12:20:17.935Z,20.57
2017-12-23T12:21:27.408Z,20.66
2017-12-23T12:22:37.609Z,20.59
2017-12-23T12:23:47.326Z,20.64
2017-12-23T12:24:56.529Z,20.62
2017-12-23T12:26:05.483Z,20.66
2017-12-23T12:27:14.427Z,20.61
2017-12-23T12:28:23.372Z,20.64
2017-12-23T12:29:32.377Z,20.62
2017-12-23T12:30:41.054Z,20.58
2017-12-23T12:31:49.734Z,20.59
2017-12-23T12:32:58.419Z,20.58
2017-12-23T12:34:07.364Z,20.62
2017-12-23T12:35:16.047Z,20.57
2017-12-23T12:36:24.993Z,20.57
2017-12-23T12:37:34.210Z,20.64
2017-12-23T12:38:43.195Z,20.59
2017-12-23T12:39:52.093Z,20.58
2017-12-23T12:41:00.784Z,20.62
2017-12-23T12:42:09.466Z,20.61
2017-12-23T12:43:18.404Z,20.64
2017-12-23T12:44:27.869Z,20.66
2017-12-23T12:45:36.571Z,20.57
2017-12-23T12:46:45.773Z,20.54
2017-12-23T12:47:54.447Z,20.66
2017-12-23T12:49:03.387Z,20.66
2017-12-23T12:50:12.324Z,20.62
2017-12-23T12:51:21.807Z,20.61
2017-12-23T12:52:31.522Z,20.54
2017-12-23T12:53:40.470Z,20.62
2017-12-23T12:54:49.408Z,20.62
2017-12-23T12:55:58.086Z,20.64
2017-12-23T12:57:07.097Z,20.61
2017-12-23T12:58:16.289Z,20.66
2017-12-23T12:59:25.225Z,20.67
2017-12-23T13:00:34.163Z,20.61
2017-12-23T13:01:43.394Z,20.66
2017-12-23T13:02:52.322Z,20.61
2017-12-23T13:04:01.517Z,20.59
2017-12-23T13:05:10.192Z,20.61
2017-12-23T13:06:19.215Z,20.57
2017-12-23T13:07:28.150Z,20.55
2017-12-23T13:08:37.627Z,20.67
2017-12-23T13:09:46.844Z,20.54
2017-12-23T13:10:55.785Z,20.62
2017-12-23T13:12:04.721Z,20.64
2017-12-23T13:13:13.656Z,20.58
2017-12-23T13:14:22.336Z,20.5
2017-12-23T13:15:31.282Z,20.62
2017-12-23T13:16:39.974Z,20.54
2017-12-23T13:17:48.911Z,20.54
2017-12-23T13:18:57.598Z,20.57
2017-12-23T13:20:06.793Z,20.55
2017-12-23T13:21:15.992Z,20.59
2017-12-23T13:22:24.931Z,20.51
2017-12-23T13:23:33.999Z,20.55
2017-12-23T13:24:42.938Z,20.55
2017-12-23T13:25:52.137Z,20.59
2017-12-23T13:27:01.078Z,20.51
2017-12-23T13:28:09.792Z,20.59
2017-12-23T13:29:18.997Z,20.51
2017-12-23T13:30:27.947Z,20.52
2017-12-23T13:31:36.898Z,20.43
2017-12-23T13:32:45.573Z,20.57
2017-12-23T13:33:54.527Z,20.62
2017-12-23T13:35:03.564Z,20.47
2017-12-23T13:36:13.732Z,20.42
2017-12-23T13:37:22.669Z,20.57
2017-12-23T13:38:31.627Z,20.52
2017-12-23T13:39:40.314Z,20.58
2017-12-23T13:40:49.784Z,20.5
2017-12-23T13:41:58.474Z,20.5
2017-12-23T13:43:07.683Z,20.47
2017-12-23T13:44:16.662Z,20.41
2017-12-23T13:45:25.344Z,20.51
2017-12-23T13:46:34.290Z,20.58
2017-12-23T13:47:42.972Z,20.58
2017-12-23T13:48:51.920Z,20.41
2017-12-23T13:50:00.874Z,20.51
2017-12-23T13:51:09.920Z,20.5
2017-12-23T13:52:18.857Z,20.54
2017-12-23T13:53:27.816Z,20.43
2017-12-23T13:54:37.011Z,20.41
2017-12-23T13:55:45.941Z,20.55
2017-12-23T13:56:55.150Z,20.51
2017-12-23T13:58:04.090Z,20.42
2017-12-23T13:59:13.585Z,20.54
2017-12-23T14:00:22.802Z,20.55
2017-12-23T14:01:31.746Z,20.51
2017-12-23T14:02:40.958Z,20.57
2017-12-23T14:03:49.910Z,20.48
2017-12-23T14:04:58.862Z,20.52
2017-12-23T14:06:07.808Z,20.55
2017-12-23T14:07:17.041Z,20.51
2017-12-23T14:08:26.173Z,20.52
2017-12-23T14:09:35.378Z,20.48
2017-12-23T14:10:44.331Z,20.5
2017-12-23T14:11:53.533Z,20.54
2017-12-23T14:13:02.749Z,20.43
2017-12-23T14:14:11.693Z,20.43
2017-12-23T14:15:21.198Z,20.5
2017-12-23T14:16:30.148Z,20.47
2017-12-23T14:17:39.107Z,20.51
2017-12-23T14:18:48.854Z,20.5
2017-12-23T14:19:58.606Z,20.51
2017-12-23T14:21:08.602Z,20.42
2017-12-23T14:22:17.538Z,20.57
2017-12-23T14:23:26.794Z,20.52
2017-12-23T14:24:36.008Z,20.47
2017-12-23T14:25:45.481Z,20.52
2017-12-23T14:26:54.184Z,20.47
2017-12-23T14:28:02.884Z,20.58
2017-12-23T14:29:11.591Z,20.42
2017-12-23T14:30:20.527Z,20.52
2017-12-23T14:31:29.478Z,20.57
2017-12-23T14:32:38.700Z,20.39
2017-12-23T14:33:47.388Z,20.48
2017-12-23T14:34:56.859Z,20.42
2017-12-23T14:36:06.341Z,20.52
2017-12-23T14:37:15.292Z,20.43
2017-12-23T14:38:24.254Z,20.39
2017-12-23T14:39:33.725Z,20.48
2017-12-23T14:40:42.941Z,20.5
2017-12-23T14:41:51.877Z,20.41
2017-12-23T14:43:01.128Z,20.42
2017-12-23T14:44:10.085Z,20.47
2017-12-23T14:45:19.063Z,20.42
2017-12-23T14:46:27.993Z,20.52
2017-12-23T14:47:37.200Z,20.5
2017-12-23T14:48:46.415Z,20.52
2017-12-23T14:49:55.161Z,20.48
2017-12-23T14:51:04.653Z,20.47